Johnsonville, South Dakota
Current Conditions -  °F | °C
As of 11:34 PM on Wednesday 22 Oct 2014 (Local Time) from KCNB Reporting Station
Broken Clouds Broken Clouds  
Wind Chill: 54°   Ceiling: 7000
Heat Index: 54°   Visibility: 10mi
Dew Point: 52°   Wind: 6mph
Humidity: 92%   Direction: 230°SW
Pressure: 29.99"   Gusts: NA
Location:  44.5872°N, 96.7638°W
Report Text: KCNB 230434Z AUTO 23005KT 10SM BKN070 12/11 A2999 RMK AO2 T01220110
Loading
Personal Weather Stations






























Interactive Weather Map
Tropical Storm Tracking
New forecast layout! Learn more

10-Day Weather Forecast

Advertisements
Track Severe Weather on mobile